sensor_id;sensor_type;location;lat;lon;timestamp;temperature;humidity
5461;DHT22;2753;49.196;8.286;2023-04-24T00:02:14;12.50;99.90
5461;DHT22;2753;49.196;8.286;2023-04-24T00:04:41;12.40;99.90
5461;DHT22;2753;49.196;8.286;2023-04-24T00:07:10;12.40;99.90
5461;DHT22;2753;49.196;8.286;2023-04-24T00:09:36;12.40;99.90
5461;DHT22;2753;49.196;8.286;2023-04-24T00:12:02;12.40;99.90
5461;DHT22;2753;49.196;8.286;2023-04-24T00:14:30;12.40;99.90
5461;DHT22;2753;49.196;8.286;2023-04-24T00:16:56;12.30;99.90
5461;DHT22;2753;49.196;8.286;2023-04-24T00:19:21;12.30;99.90
5461;DHT22;2753;49.196;8.286;2023-04-24T00:21:47;12.40;99.90
5461;DHT22;2753;49.196;8.286;2023-04-24T00:24:16;12.50;99.90
5461;DHT22;2753;49.196;8.286;2023-04-24T00:26:42;12.40;99.90
5461;DHT22;2753;49.196;8.286;2023-04-24T00:29:07;12.40;99.90
5461;DHT22;2753;49.196;8.286;2023-04-24T00:31:33;12.40;99.90
5461;DHT22;2753;49.196;8.286;2023-04-24T00:34:02;12.40;99.90
5461;DHT22;2753;49.196;8.286;2023-04-24T00:36:28;12.40;99.90
5461;DHT22;2753;49.196;8.286;2023-04-24T00:38:54;12.30;99.90
5461;DHT22;2753;49.196;8.286;2023-04-24T00:41:21;12.40;99.90
5461;DHT22;2753;49.196;8.286;2023-04-24T00:43:47;12.30;99.90
5461;DHT22;2753;49.196;8.286;2023-04-24T00:46:13;12.30;99.90
5461;DHT22;2753;49.196;8.286;2023-04-24T00:48:39;12.30;99.90
5461;DHT22;2753;49.196;8.286;2023-04-24T00:51:05;12.20;99.90
5461;DHT22;2753;49.196;8.286;2023-04-24T00:53:31;12.50;99.90
5461;DHT22;2753;49.196;8.286;2023-04-24T00:55:58;12.10;99.90
5461;DHT22;2753;49.196;8.286;2023-04-24T00:58:24;12.00;99.90
5461;DHT22;2753;49.196;8.286;2023-04-24T01:00:50;12.00;99.90
5461;DHT22;2753;49.196;8.286;2023-04-24T01:03:24;12.10;99.90
5461;DHT22;2753;49.196;8.286;2023-04-24T01:05:51;12.10;99.90
5461;DHT22;2753;49.196;8.286;2023-04-24T01:08:18;12.10;99.90
5461;DHT22;2753;49.196;8.286;2023-04-24T01:10:46;12.10;99.90
5461;DHT22;2753;49.196;8.286;2023-04-24T01:13:13;12.00;99.90
5461;DHT22;2753;49.196;8.286;2023-04-24T01:15:39;12.00;99.90
5461;DHT22;2753;49.196;8.286;2023-04-24T01:18:05;12.00;99.90
5461;DHT22;2753;49.196;8.286;2023-04-24T01:20:31;12.10;99.90
5461;DHT22;2753;49.196;8.286;2023-04-24T01:22:57;12.00;99.90
5461;DHT22;2753;49.196;8.286;2023-04-24T01:25:24;12.00;99.90
5461;DHT22;2753;49.196;8.286;2023-04-24T01:27:51;12.00;99.90
5461;DHT22;2753;49.196;8.286;2023-04-24T01:30:18;12.00;99.90
5461;DHT22;2753;49.196;8.286;2023-04-24T01:36:06;12.10;99.90
5461;DHT22;2753;49.196;8.286;2023-04-24T01:38:33;12.00;99.90
5461;DHT22;2753;49.196;8.286;2023-04-24T01:40:58;12.00;99.90
5461;DHT22;2753;49.196;8.286;2023-04-24T01:43:25;12.00;99.90
5461;DHT22;2753;49.196;8.286;2023-04-24T01:45:50;12.10;99.90
5461;DHT22;2753;49.196;8.286;2023-04-24T01:48:16;12.00;99.90
5461;DHT22;2753;49.196;8.286;2023-04-24T01:50:42;12.00;99.90
5461;DHT22;2753;49.196;8.286;2023-04-24T01:53:07;12.00;99.90
5461;DHT22;2753;49.196;8.286;2023-04-24T01:55:33;12.00;99.90
5461;DHT22;2753;49.196;8.286;2023-04-24T01:57:59;11.90;99.90
5461;DHT22;2753;49.196;8.286;2023-04-24T02:00:26;11.90;99.90
5461;DHT22;2753;49.196;8.286;2023-04-24T02:02:52;11.90;99.90
5461;DHT22;2753;49.196;8.286;2023-04-24T02:05:17;11.90;99.90
5461;DHT22;2753;49.196;8.286;2023-04-24T02:07:43;11.90;99.90
5461;DHT22;2753;49.196;8.286;2023-04-24T02:10:09;12.00;99.90
5461;DHT22;2753;49.196;8.286;2023-04-24T02:12:35;12.00;99.90
5461;DHT22;2753;49.196;8.286;2023-04-24T02:15:00;12.00;99.90
5461;DHT22;2753;49.196;8.286;2023-04-24T02:17:26;12.00;99.90
5461;DHT22;2753;49.196;8.286;2023-04-24T02:19:52;12.00;99.90
5461;DHT22;2753;49.196;8.286;2023-04-24T02:22:18;12.00;99.90
5461;DHT22;2753;49.196;8.286;2023-04-24T02:24:43;12.00;99.90
5461;DHT22;2753;49.196;8.286;2023-04-24T02:27:09;12.00;99.90
5461;DHT22;2753;49.196;8.286;2023-04-24T02:29:35;12.00;99.90
5461;DHT22;2753;49.196;8.286;2023-04-24T02:32:01;12.00;99.90
5461;DHT22;2753;49.196;8.286;2023-04-24T02:34:27;12.00;99.90
5461;DHT22;2753;49.196;8.286;2023-04-24T02:36:52;12.00;99.90
5461;DHT22;2753;49.196;8.286;2023-04-24T02:39:19;12.00;99.90
5461;DHT22;2753;49.196;8.286;2023-04-24T02:41:45;12.00;99.90
5461;DHT22;2753;49.196;8.286;2023-04-24T02:44:11;12.00;99.90
5461;DHT22;2753;49.196;8.286;2023-04-24T02:46:37;12.00;99.90
5461;DHT22;2753;49.196;8.286;2023-04-24T02:49:02;11.90;99.90
5461;DHT22;2753;49.196;8.286;2023-04-24T02:51:28;11.90;99.90
5461;DHT22;2753;49.196;8.286;2023-04-24T02:53:54;11.90;99.90
5461;DHT22;2753;49.196;8.286;2023-04-24T02:56:20;11.90;99.90
5461;DHT22;2753;49.196;8.286;2023-04-24T02:58:46;11.90;99.90
5461;DHT22;2753;49.196;8.286;2023-04-24T03:01:12;11.90;99.90
5461;DHT22;2753;49.196;8.286;2023-04-24T03:03:38;11.80;99.90
5461;DHT22;2753;49.196;8.286;2023-04-24T03:06:04;11.80;99.90
5461;DHT22;2753;49.196;8.286;2023-04-24T03:08:31;11.80;99.90
5461;DHT22;2753;49.196;8.286;2023-04-24T03:10:57;11.80;99.90
5461;DHT22;2753;49.196;8.286;2023-04-24T03:13:23;11.80;99.90
5461;DHT22;2753;49.196;8.286;2023-04-24T03:15:49;11.70;99.90
5461;DHT22;2753;49.196;8.286;2023-04-24T03:18:14;11.70;99.90
5461;DHT22;2753;49.196;8.286;2023-04-24T03:20:40;11.60;99.90
5461;DHT22;2753;49.196;8.286;2023-04-24T03:23:06;11.60;99.90
5461;DHT22;2753;49.196;8.286;2023-04-24T03:25:31;11.60;99.90
5461;DHT22;2753;49.196;8.286;2023-04-24T03:27:57;11.60;99.90
5461;DHT22;2753;49.196;8.286;2023-04-24T03:30:23;11.70;99.90
5461;DHT22;2753;49.196;8.286;2023-04-24T03:32:48;11.70;99.90
5461;DHT22;2753;49.196;8.286;2023-04-24T03:35:14;11.60;99.90
5461;DHT22;2753;49.196;8.286;2023-04-24T03:37:40;11.60;99.90
5461;DHT22;2753;49.196;8.286;2023-04-24T03:40:06;11.50;99.90
5461;DHT22;2753;49.196;8.286;2023-04-24T03:42:32;11.50;99.90
5461;DHT22;2753;49.196;8.286;2023-04-24T03:44:58;11.50;99.90
5461;DHT22;2753;49.196;8.286;2023-04-24T03:47:23;11.50;99.90
5461;DHT22;2753;49.196;8.286;2023-04-24T03:49:49;11.50;99.90
5461;DHT22;2753;49.196;8.286;2023-04-24T03:52:15;11.50;99.90
5461;DHT22;2753;49.196;8.286;2023-04-24T03:54:41;11.50;99.90
5461;DHT22;2753;49.196;8.286;2023-04-24T03:57:06;11.30;99.90
5461;DHT22;2753;49.196;8.286;2023-04-24T03:59:32;11.30;99.90
5461;DHT22;2753;49.196;8.286;2023-04-24T04:01:58;11.30;99.90
5461;DHT22;2753;49.196;8.286;2023-04-24T04:04:23;11.30;99.90
5461;DHT22;2753;49.196;8.286;2023-04-24T04:06:49;11.20;99.90
5461;DHT22;2753;49.196;8.286;2023-04-24T04:09:15;11.20;99.90
5461;DHT22;2753;49.196;8.286;2023-04-24T04:11:41;11.10;99.90
5461;DHT22;2753;49.196;8.286;2023-04-24T04:14:06;11.10;99.90
5461;DHT22;2753;49.196;8.286;2023-04-24T04:16:32;11.00;99.90
5461;DHT22;2753;49.196;8.286;2023-04-24T04:18:58;11.00;99.90
5461;DHT22;2753;49.196;8.286;2023-04-24T04:21:24;11.00;99.90
5461;DHT22;2753;49.196;8.286;2023-04-24T04:23:49;11.00;99.90
5461;DHT22;2753;49.196;8.286;2023-04-24T04:26:15;11.00;99.90
5461;DHT22;2753;49.196;8.286;2023-04-24T04:28:41;11.00;99.90
5461;DHT22;2753;49.196;8.286;2023-04-24T04:31:07;11.00;99.90
5461;DHT22;2753;49.196;8.286;2023-04-24T04:33:33;11.00;99.90
5461;DHT22;2753;49.196;8.286;2023-04-24T04:35:59;11.00;99.90
5461;DHT22;2753;49.196;8.286;2023-04-24T04:38:25;11.00;99.90
5461;DHT22;2753;49.196;8.286;2023-04-24T04:40:55;10.90;99.90
5461;DHT22;2753;49.196;8.286;2023-04-24T04:43:24;10.90;99.90
5461;DHT22;2753;49.196;8.286;2023-04-24T04:45:50;11.00;99.90
5461;DHT22;2753;49.196;8.286;2023-04-24T04:48:17;11.00;99.90
5461;DHT22;2753;49.196;8.286;2023-04-24T04:50:43;11.00;99.90
5461;DHT22;2753;49.196;8.286;2023-04-24T04:53:08;11.00;99.90
5461;DHT22;2753;49.196;8.286;2023-04-24T04:55:34;11.00;99.90
5461;DHT22;2753;49.196;8.286;2023-04-24T04:58:00;10.90;99.90
5461;DHT22;2753;49.196;8.286;2023-04-24T05:00:26;10.90;99.90
5461;DHT22;2753;49.196;8.286;2023-04-24T05:02:52;10.90;99.90
5461;DHT22;2753;49.196;8.286;2023-04-24T05:05:18;10.90;99.90
5461;DHT22;2753;49.196;8.286;2023-04-24T05:07:44;10.90;99.90
5461;DHT22;2753;49.196;8.286;2023-04-24T05:10:10;10.90;99.90
5461;DHT22;2753;49.196;8.286;2023-04-24T05:12:36;10.90;99.90
5461;DHT22;2753;49.196;8.286;2023-04-24T05:15:02;11.00;99.90
5461;DHT22;2753;49.196;8.286;2023-04-24T05:17:28;11.00;99.90
5461;DHT22;2753;49.196;8.286;2023-04-24T05:19:54;11.10;99.90
5461;DHT22;2753;49.196;8.286;2023-04-24T05:22:20;11.10;99.90
5461;DHT22;2753;49.196;8.286;2023-04-24T05:24:46;11.10;99.90
5461;DHT22;2753;49.196;8.286;2023-04-24T05:27:12;11.10;99.90
5461;DHT22;2753;49.196;8.286;2023-04-24T05:29:38;11.20;99.90
5461;DHT22;2753;49.196;8.286;2023-04-24T05:32:04;11.20;99.90
5461;DHT22;2753;49.196;8.286;2023-04-24T05:34:30;11.30;99.90
5461;DHT22;2753;49.196;8.286;2023-04-24T05:36:55;11.30;99.90
5461;DHT22;2753;49.196;8.286;2023-04-24T05:39:21;11.40;99.90
5461;DHT22;2753;49.196;8.286;2023-04-24T05:41:47;11.30;99.90
5461;DHT22;2753;49.196;8.286;2023-04-24T05:44:12;11.30;99.90
5461;DHT22;2753;49.196;8.286;2023-04-24T05:46:38;11.20;99.90
5461;DHT22;2753;49.196;8.286;2023-04-24T05:49:04;11.10;99.90
5461;DHT22;2753;49.196;8.286;2023-04-24T05:51:29;11.20;99.90
5461;DHT22;2753;49.196;8.286;2023-04-24T05:53:57;11.20;99.90
5461;DHT22;2753;49.196;8.286;2023-04-24T05:56:22;11.10;99.90
5461;DHT22;2753;49.196;8.286;2023-04-24T05:58:48;11.10;99.90
5461;DHT22;2753;49.196;8.286;2023-04-24T06:01:14;11.10;99.90
5461;DHT22;2753;49.196;8.286;2023-04-24T06:03:43;11.10;99.90
5461;DHT22;2753;49.196;8.286;2023-04-24T06:06:09;11.10;99.90
5461;DHT22;2753;49.196;8.286;2023-04-24T06:08:35;11.10;99.90
5461;DHT22;2753;49.196;8.286;2023-04-24T06:11:01;11.10;99.90
5461;DHT22;2753;49.196;8.286;2023-04-24T06:13:26;11.10;99.90
5461;DHT22;2753;49.196;8.286;2023-04-24T06:15:52;11.20;99.90
5461;DHT22;2753;49.196;8.286;2023-04-24T06:18:18;11.30;99.90
5461;DHT22;2753;49.196;8.286;2023-04-24T06:20:46;11.30;99.90
5461;DHT22;2753;49.196;8.286;2023-04-24T06:23:11;11.40;99.90
5461;DHT22;2753;49.196;8.286;2023-04-24T06:25:38;11.50;99.90
5461;DHT22;2753;49.196;8.286;2023-04-24T06:28:03;11.60;99.90
5461;DHT22;2753;49.196;8.286;2023-04-24T06:30:30;11.80;99.90
5461;DHT22;2753;49.196;8.286;2023-04-24T06:32:55;12.30;99.90
5461;DHT22;2753;49.196;8.286;2023-04-24T06:35:21;13.30;99.90
5461;DHT22;2753;49.196;8.286;2023-04-24T06:37:47;13.10;99.90
5461;DHT22;2753;49.196;8.286;2023-04-24T06:40:12;12.50;99.90
5461;DHT22;2753;49.196;8.286;2023-04-24T06:42:38;12.10;99.90
5461;DHT22;2753;49.196;8.286;2023-04-24T06:45:04;11.70;99.90
5461;DHT22;2753;49.196;8.286;2023-04-24T06:47:31;11.70;99.90
5461;DHT22;2753;49.196;8.286;2023-04-24T06:49:57;11.60;99.90
5461;DHT22;2753;49.196;8.286;2023-04-24T06:52:22;11.60;99.90
5461;DHT22;2753;49.196;8.286;2023-04-24T06:54:48;11.50;99.90
5461;DHT22;2753;49.196;8.286;2023-04-24T06:57:14;11.40;99.90
5461;DHT22;2753;49.196;8.286;2023-04-24T06:59:41;11.20;99.90
5461;DHT22;2753;49.196;8.286;2023-04-24T07:02:07;11.10;99.90
5461;DHT22;2753;49.196;8.286;2023-04-24T07:04:33;11.00;99.90
5461;DHT22;2753;49.196;8.286;2023-04-24T07:06:58;11.00;99.90
5461;DHT22;2753;49.196;8.286;2023-04-24T07:09:25;10.80;99.90
5461;DHT22;2753;49.196;8.286;2023-04-24T07:11:54;10.80;99.90
5461;DHT22;2753;49.196;8.286;2023-04-24T07:14:22;10.90;99.90
5461;DHT22;2753;49.196;8.286;2023-04-24T07:16:48;10.80;99.90
5461;DHT22;2753;49.196;8.286;2023-04-24T07:19:13;10.90;99.90
5461;DHT22;2753;49.196;8.286;2023-04-24T07:21:39;10.90;99.90
5461;DHT22;2753;49.196;8.286;2023-04-24T07:24:05;11.20;99.90
5461;DHT22;2753;49.196;8.286;2023-04-24T07:26:34;11.50;99.90
5461;DHT22;2753;49.196;8.286;2023-04-24T07:29:00;11.60;99.90
5461;DHT22;2753;49.196;8.286;2023-04-24T07:31:26;11.50;99.90
5461;DHT22;2753;49.196;8.286;2023-04-24T07:33:52;11.40;99.90
5461;DHT22;2753;49.196;8.286;2023-04-24T07:36:17;11.40;99.90
5461;DHT22;2753;49.196;8.286;2023-04-24T07:38:45;11.40;99.90
5461;DHT22;2753;49.196;8.286;2023-04-24T07:41:11;11.40;99.90
5461;DHT22;2753;49.196;8.286;2023-04-24T07:43:36;11.30;99.90
5461;DHT22;2753;49.196;8.286;2023-04-24T07:46:02;11.40;99.90
5461;DHT22;2753;49.196;8.286;2023-04-24T07:48:28;11.80;99.90
5461;DHT22;2753;49.196;8.286;2023-04-24T07:50:53;12.10;99.90
5461;DHT22;2753;49.196;8.286;2023-04-24T07:53:19;12.20;99.90
5461;DHT22;2753;49.196;8.286;2023-04-24T07:55:45;12.30;99.90
5461;DHT22;2753;49.196;8.286;2023-04-24T07:58:11;12.40;99.90
5461;DHT22;2753;49.196;8.286;2023-04-24T08:00:37;12.60;99.90
5461;DHT22;2753;49.196;8.286;2023-04-24T08:03:03;12.70;99.90
5461;DHT22;2753;49.196;8.286;2023-04-24T08:05:28;12.60;99.90
5461;DHT22;2753;49.196;8.286;2023-04-24T08:07:54;12.60;99.90
5461;DHT22;2753;49.196;8.286;2023-04-24T08:10:22;12.70;99.90
5461;DHT22;2753;49.196;8.286;2023-04-24T08:12:47;12.80;99.90
5461;DHT22;2753;49.196;8.286;2023-04-24T08:15:13;13.00;99.90
5461;DHT22;2753;49.196;8.286;2023-04-24T08:17:39;13.10;99.90
5461;DHT22;2753;49.196;8.286;2023-04-24T08:20:06;13.20;99.60
5461;DHT22;2753;49.196;8.286;2023-04-24T08:22:35;13.30;99.20
5461;DHT22;2753;49.196;8.286;2023-04-24T08:25:01;13.30;98.20
5461;DHT22;2753;49.196;8.286;2023-04-24T08:27:27;13.40;98.60
5461;DHT22;2753;49.196;8.286;2023-04-24T08:29:53;13.60;97.70
5461;DHT22;2753;49.196;8.286;2023-04-24T08:32:19;13.40;97.10
5461;DHT22;2753;49.196;8.286;2023-04-24T08:34:45;13.30;97.60
5461;DHT22;2753;49.196;8.286;2023-04-24T08:37:11;13.30;96.90
5461;DHT22;2753;49.196;8.286;2023-04-24T08:39:37;13.40;97.40
5461;DHT22;2753;49.196;8.286;2023-04-24T08:42:04;13.50;97.20
5461;DHT22;2753;49.196;8.286;2023-04-24T08:44:33;13.80;97.30
5461;DHT22;2753;49.196;8.286;2023-04-24T08:47:01;14.00;97.20
5461;DHT22;2753;49.196;8.286;2023-04-24T08:49:28;14.20;97.20
5461;DHT22;2753;49.196;8.286;2023-04-24T08:51:54;14.30;95.50
5461;DHT22;2753;49.196;8.286;2023-04-24T08:54:21;14.20;94.20
5461;DHT22;2753;49.196;8.286;2023-04-24T08:56:48;14.20;94.50
5461;DHT22;2753;49.196;8.286;2023-04-24T08:59:17;14.10;95.30
5461;DHT22;2753;49.196;8.286;2023-04-24T09:01:45;14.00;95.00
5461;DHT22;2753;49.196;8.286;2023-04-24T09:04:14;13.80;94.60
5461;DHT22;2753;49.196;8.286;2023-04-24T09:06:42;13.70;95.20
5461;DHT22;2753;49.196;8.286;2023-04-24T09:09:08;13.60;95.20
5461;DHT22;2753;49.196;8.286;2023-04-24T09:11:37;13.40;95.00
5461;DHT22;2753;49.196;8.286;2023-04-24T09:14:02;13.30;95.60
5461;DHT22;2753;49.196;8.286;2023-04-24T09:16:29;13.30;95.60
5461;DHT22;2753;49.196;8.286;2023-04-24T09:18:55;13.30;95.90
5461;DHT22;2753;49.196;8.286;2023-04-24T09:21:22;13.30;95.90
5461;DHT22;2753;49.196;8.286;2023-04-24T09:24:04;13.10;95.80
5461;DHT22;2753;49.196;8.286;2023-04-24T09:26:31;13.00;96.20
5461;DHT22;2753;49.196;8.286;2023-04-24T09:28:58;12.90;96.00
5461;DHT22;2753;49.196;8.286;2023-04-24T09:31:27;13.00;96.10
5461;DHT22;2753;49.196;8.286;2023-04-24T09:34:04;13.20;96.00
5461;DHT22;2753;49.196;8.286;2023-04-24T09:36:37;13.50;95.50
5461;DHT22;2753;49.196;8.286;2023-04-24T09:39:08;13.60;94.70
5461;DHT22;2753;49.196;8.286;2023-04-24T09:44:15;13.70;94.40
5461;DHT22;2753;49.196;8.286;2023-04-24T09:46:42;13.60;94.40
5461;DHT22;2753;49.196;8.286;2023-04-24T09:49:13;13.80;94.60
5461;DHT22;2753;49.196;8.286;2023-04-24T09:51:39;13.80;94.50
5461;DHT22;2753;49.196;8.286;2023-04-24T09:54:17;13.90;94.20
5461;DHT22;2753;49.196;8.286;2023-04-24T09:56:44;13.70;93.00
5461;DHT22;2753;49.196;8.286;2023-04-24T09:59:11;13.70;93.20
5461;DHT22;2753;49.196;8.286;2023-04-24T10:01:36;13.60;93.90
5461;DHT22;2753;49.196;8.286;2023-04-24T10:04:04;13.60;94.50
5461;DHT22;2753;49.196;8.286;2023-04-24T10:06:36;13.50;94.50
5461;DHT22;2753;49.196;8.286;2023-04-24T10:09:02;13.40;94.80
5461;DHT22;2753;49.196;8.286;2023-04-24T10:11:30;13.30;95.60
5461;DHT22;2753;49.196;8.286;2023-04-24T10:13:56;13.10;96.10
5461;DHT22;2753;49.196;8.286;2023-04-24T10:16:23;13.10;96.40
5461;DHT22;2753;49.196;8.286;2023-04-24T10:18:49;13.00;96.30
5461;DHT22;2753;49.196;8.286;2023-04-24T10:21:17;12.80;96.20
5461;DHT22;2753;49.196;8.286;2023-04-24T10:23:42;12.80;96.20
5461;DHT22;2753;49.196;8.286;2023-04-24T10:26:16;12.80;96.00
5461;DHT22;2753;49.196;8.286;2023-04-24T10:28:47;12.90;96.00
5461;DHT22;2753;49.196;8.286;2023-04-24T10:31:14;12.90;96.00
5461;DHT22;2753;49.196;8.286;2023-04-24T10:33:43;12.90;96.00
5461;DHT22;2753;49.196;8.286;2023-04-24T10:36:11;12.90;96.00
5461;DHT22;2753;49.196;8.286;2023-04-24T10:38:40;12.90;96.10
5461;DHT22;2753;49.196;8.286;2023-04-24T10:41:11;12.90;96.10
5461;DHT22;2753;49.196;8.286;2023-04-24T10:44:04;13.00;96.30
5461;DHT22;2753;49.196;8.286;2023-04-24T10:46:30;13.00;96.30
5461;DHT22;2753;49.196;8.286;2023-04-24T10:48:56;13.10;96.50
5461;DHT22;2753;49.196;8.286;2023-04-24T10:51:24;13.10;96.40
5461;DHT22;2753;49.196;8.286;2023-04-24T10:53:51;13.00;96.20
5461;DHT22;2753;49.196;8.286;2023-04-24T10:56:17;13.00;96.50
5461;DHT22;2753;49.196;8.286;2023-04-24T10:58:51;13.10;96.70
5461;DHT22;2753;49.196;8.286;2023-04-24T11:01:28;13.00;96.40
5461;DHT22;2753;49.196;8.286;2023-04-24T11:03:59;12.90;96.20
5461;DHT22;2753;49.196;8.286;2023-04-24T11:06:36;12.80;96.80
5461;DHT22;2753;49.196;8.286;2023-04-24T11:09:07;12.60;97.50
5461;DHT22;2753;49.196;8.286;2023-04-24T11:11:37;12.50;98.10
5461;DHT22;2753;49.196;8.286;2023-04-24T11:14:06;12.50;98.40
5461;DHT22;2753;49.196;8.286;2023-04-24T11:19:06;12.60;98.70
5461;DHT22;2753;49.196;8.286;2023-04-24T11:26:48;12.90;98.60
5461;DHT22;2753;49.196;8.286;2023-04-24T11:29:14;13.00;97.50
5461;DHT22;2753;49.196;8.286;2023-04-24T11:31:40;13.10;97.90
5461;DHT22;2753;49.196;8.286;2023-04-24T11:34:12;13.20;97.70
5461;DHT22;2753;49.196;8.286;2023-04-24T11:36:39;13.10;96.60
5461;DHT22;2753;49.196;8.286;2023-04-24T11:39:05;13.10;96.10
5461;DHT22;2753;49.196;8.286;2023-04-24T11:41:33;13.00;95.90
5461;DHT22;2753;49.196;8.286;2023-04-24T11:43:59;12.90;95.60
5461;DHT22;2753;49.196;8.286;2023-04-24T11:46:29;12.90;96.00
5461;DHT22;2753;49.196;8.286;2023-04-24T11:48:56;12.90;95.50
5461;DHT22;2753;49.196;8.286;2023-04-24T11:51:23;13.00;95.40
5461;DHT22;2753;49.196;8.286;2023-04-24T11:53:49;13.00;94.90
5461;DHT22;2753;49.196;8.286;2023-04-24T11:56:18;13.10;95.30
5461;DHT22;2753;49.196;8.286;2023-04-24T11:58:45;13.10;94.70
5461;DHT22;2753;49.196;8.286;2023-04-24T12:01:12;13.00;94.50
5461;DHT22;2753;49.196;8.286;2023-04-24T12:03:37;13.10;94.70
5461;DHT22;2753;49.196;8.286;2023-04-24T12:06:11;13.00;94.30
5461;DHT22;2753;49.196;8.286;2023-04-24T12:08:37;13.10;94.30
5461;DHT22;2753;49.196;8.286;2023-04-24T12:11:05;13.00;94.10
5461;DHT22;2753;49.196;8.286;2023-04-24T12:13:33;12.90;94.40
5461;DHT22;2753;49.196;8.286;2023-04-24T12:16:03;12.90;94.40
5461;DHT22;2753;49.196;8.286;2023-04-24T12:18:30;12.90;94.50
5461;DHT22;2753;49.196;8.286;2023-04-24T12:21:14;12.90;94.40
5461;DHT22;2753;49.196;8.286;2023-04-24T12:23:43;13.00;94.50
5461;DHT22;2753;49.196;8.286;2023-04-24T12:26:10;13.00;94.40
5461;DHT22;2753;49.196;8.286;2023-04-24T12:28:37;13.00;94.40
5461;DHT22;2753;49.196;8.286;2023-04-24T12:31:03;13.10;94.20
5461;DHT22;2753;49.196;8.286;2023-04-24T12:33:32;13.10;94.30
5461;DHT22;2753;49.196;8.286;2023-04-24T12:35:59;13.30;94.50
5461;DHT22;2753;49.196;8.286;2023-04-24T12:38:28;13.30;93.80
5461;DHT22;2753;49.196;8.286;2023-04-24T12:41:06;13.30;93.80
5461;DHT22;2753;49.196;8.286;2023-04-24T12:43:33;13.40;94.30
5461;DHT22;2753;49.196;8.286;2023-04-24T12:45:58;13.50;93.70
5461;DHT22;2753;49.196;8.286;2023-04-24T12:48:26;13.60;93.50
5461;DHT22;2753;49.196;8.286;2023-04-24T12:50:51;13.60;93.00
5461;DHT22;2753;49.196;8.286;2023-04-24T12:53:17;13.60;93.00
5461;DHT22;2753;49.196;8.286;2023-04-24T12:55:43;13.60;92.90
5461;DHT22;2753;49.196;8.286;2023-04-24T12:58:10;13.80;93.50
5461;DHT22;2753;49.196;8.286;2023-04-24T13:00:35;13.90;93.50
5461;DHT22;2753;49.196;8.286;2023-04-24T13:03:01;14.00;93.20
5461;DHT22;2753;49.196;8.286;2023-04-24T13:05:27;14.10;92.50
5461;DHT22;2753;49.196;8.286;2023-04-24T13:07:53;14.10;91.50
5461;DHT22;2753;49.196;8.286;2023-04-24T13:10:19;14.10;91.70
5461;DHT22;2753;49.196;8.286;2023-04-24T13:12:45;14.10;91.50
5461;DHT22;2753;49.196;8.286;2023-04-24T13:15:11;14.10;91.40
5461;DHT22;2753;49.196;8.286;2023-04-24T13:17:37;14.10;91.30
5461;DHT22;2753;49.196;8.286;2023-04-24T13:20:03;14.10;91.00
5461;DHT22;2753;49.196;8.286;2023-04-24T13:22:29;14.10;91.40
5461;DHT22;2753;49.196;8.286;2023-04-24T13:24:55;14.10;91.20
5461;DHT22;2753;49.196;8.286;2023-04-24T13:27:21;14.20;91.70
5461;DHT22;2753;49.196;8.286;2023-04-24T13:29:47;14.30;91.10
5461;DHT22;2753;49.196;8.286;2023-04-24T13:32:13;14.30;91.40
5461;DHT22;2753;49.196;8.286;2023-04-24T13:34:39;14.40;91.40
5461;DHT22;2753;49.196;8.286;2023-04-24T13:37:05;14.40;91.60
5461;DHT22;2753;49.196;8.286;2023-04-24T13:39:30;14.30;91.30
5461;DHT22;2753;49.196;8.286;2023-04-24T13:41:57;14.30;91.30
5461;DHT22;2753;49.196;8.286;2023-04-24T13:44:23;14.20;91.60
5461;DHT22;2753;49.196;8.286;2023-04-24T13:46:51;14.20;91.90
5461;DHT22;2753;49.196;8.286;2023-04-24T13:49:19;14.10;91.20
5461;DHT22;2753;49.196;8.286;2023-04-24T13:51:46;14.00;91.60
5461;DHT22;2753;49.196;8.286;2023-04-24T13:54:11;14.00;92.00
5461;DHT22;2753;49.196;8.286;2023-04-24T13:56:38;14.00;91.90
5461;DHT22;2753;49.196;8.286;2023-04-24T13:59:04;14.00;91.80
5461;DHT22;2753;49.196;8.286;2023-04-24T14:01:30;14.00;92.30
5461;DHT22;2753;49.196;8.286;2023-04-24T14:03:56;14.10;92.10
5461;DHT22;2753;49.196;8.286;2023-04-24T14:06:22;14.10;91.70
5461;DHT22;2753;49.196;8.286;2023-04-24T14:08:48;14.10;91.20
5461;DHT22;2753;49.196;8.286;2023-04-24T14:11:16;14.10;91.10
5461;DHT22;2753;49.196;8.286;2023-04-24T14:13:42;14.00;90.90
5461;DHT22;2753;49.196;8.286;2023-04-24T14:16:09;14.00;90.90
5461;DHT22;2753;49.196;8.286;2023-04-24T14:18:35;14.00;91.70
5461;DHT22;2753;49.196;8.286;2023-04-24T14:21:02;14.00;91.40
5461;DHT22;2753;49.196;8.286;2023-04-24T14:23:27;14.00;91.80
5461;DHT22;2753;49.196;8.286;2023-04-24T14:25:53;14.00;92.30
5461;DHT22;2753;49.196;8.286;2023-04-24T14:28:19;14.00;92.30
5461;DHT22;2753;49.196;8.286;2023-04-24T14:30:46;14.00;92.20
5461;DHT22;2753;49.196;8.286;2023-04-24T14:33:12;13.80;92.00
5461;DHT22;2753;49.196;8.286;2023-04-24T14:35:39;13.90;92.20
5461;DHT22;2753;49.196;8.286;2023-04-24T14:38:05;13.90;92.40
5461;DHT22;2753;49.196;8.286;2023-04-24T14:40:31;13.90;92.60
5461;DHT22;2753;49.196;8.286;2023-04-24T14:42:58;13.90;92.80
5461;DHT22;2753;49.196;8.286;2023-04-24T14:45:25;13.90;93.00
5461;DHT22;2753;49.196;8.286;2023-04-24T14:47:51;13.90;92.80
5461;DHT22;2753;49.196;8.286;2023-04-24T14:50:16;13.80;92.80
5461;DHT22;2753;49.196;8.286;2023-04-24T14:52:42;13.80;93.30
5461;DHT22;2753;49.196;8.286;2023-04-24T14:55:08;13.70;94.60
5461;DHT22;2753;49.196;8.286;2023-04-24T14:57:34;13.60;95.50
5461;DHT22;2753;49.196;8.286;2023-04-24T15:00:02;13.50;95.40
5461;DHT22;2753;49.196;8.286;2023-04-24T15:02:29;13.50;95.60
5461;DHT22;2753;49.196;8.286;2023-04-24T15:04:54;13.60;95.80
5461;DHT22;2753;49.196;8.286;2023-04-24T15:07:20;13.60;95.80
5461;DHT22;2753;49.196;8.286;2023-04-24T15:09:46;13.50;95.80
5461;DHT22;2753;49.196;8.286;2023-04-24T15:12:12;13.60;95.70
5461;DHT22;2753;49.196;8.286;2023-04-24T15:14:38;13.60;96.00
5461;DHT22;2753;49.196;8.286;2023-04-24T15:17:04;13.60;96.20
5461;DHT22;2753;49.196;8.286;2023-04-24T15:19:31;13.60;96.50
5461;DHT22;2753;49.196;8.286;2023-04-24T15:21:56;13.60;96.50
5461;DHT22;2753;49.196;8.286;2023-04-24T15:24:22;13.50;96.60
5461;DHT22;2753;49.196;8.286;2023-04-24T15:26:48;13.50;96.70
5461;DHT22;2753;49.196;8.286;2023-04-24T15:29:13;13.40;96.90
5461;DHT22;2753;49.196;8.286;2023-04-24T15:31:39;13.30;96.70
5461;DHT22;2753;49.196;8.286;2023-04-24T15:34:06;13.20;96.90
5461;DHT22;2753;49.196;8.286;2023-04-24T15:36:32;13.10;97.10
5461;DHT22;2753;49.196;8.286;2023-04-24T15:38:58;13.00;98.00
5461;DHT22;2753;49.196;8.286;2023-04-24T15:41:23;12.90;98.20
5461;DHT22;2753;49.196;8.286;2023-04-24T15:43:49;13.00;98.30
5461;DHT22;2753;49.196;8.286;2023-04-24T15:46:15;13.00;98.60
5461;DHT22;2753;49.196;8.286;2023-04-24T15:48:42;13.10;98.70
5461;DHT22;2753;49.196;8.286;2023-04-24T15:51:08;13.10;98.70
5461;DHT22;2753;49.196;8.286;2023-04-24T15:53:33;13.10;99.00
5461;DHT22;2753;49.196;8.286;2023-04-24T15:55:59;13.10;99.10
5461;DHT22;2753;49.196;8.286;2023-04-24T15:58:25;13.10;98.70
5461;DHT22;2753;49.196;8.286;2023-04-24T16:00:51;13.10;98.60
5461;DHT22;2753;49.196;8.286;2023-04-24T16:03:19;13.20;98.70
5461;DHT22;2753;49.196;8.286;2023-04-24T16:05:44;13.30;98.80
5461;DHT22;2753;49.196;8.286;2023-04-24T16:08:10;13.40;99.00
5461;DHT22;2753;49.196;8.286;2023-04-24T16:10:38;13.40;99.10
5461;DHT22;2753;49.196;8.286;2023-04-24T16:13:04;13.50;98.90